sensor_id;sensor_type;location;lat;lon;timestamp;P1;durP1;ratioP1;P2;durP2;ratioP2
8490;SDS011;4282;49.986;7.938;2023-02-15T00:01:35;42.73;;;19.97;;
8490;SDS011;4282;49.986;7.938;2023-02-15T00:04:04;41.13;;;18.13;;
8490;SDS011;4282;49.986;7.938;2023-02-15T00:06:33;39.10;;;18.77;;
8490;SDS011;4282;49.986;7.938;2023-02-15T00:09:01;40.30;;;19.27;;
8490;SDS011;4282;49.986;7.938;2023-02-15T00:11:30;39.23;;;19.10;;
8490;SDS011;4282;49.986;7.938;2023-02-15T00:14:12;45.87;;;18.90;;
8490;SDS011;4282;49.986;7.938;2023-02-15T00:16:42;39.33;;;17.50;;
8490;SDS011;4282;49.986;7.938;2023-02-15T00:19:12;40.80;;;17.90;;
8490;SDS011;4282;49.986;7.938;2023-02-15T00:21:41;38.13;;;17.40;;
8490;SDS011;4282;49.986;7.938;2023-02-15T00:24:11;39.23;;;18.07;;
8490;SDS011;4282;49.986;7.938;2023-02-15T00:26:40;47.53;;;20.20;;
8490;SDS011;4282;49.986;7.938;2023-02-15T00:29:12;37.37;;;17.10;;
8490;SDS011;4282;49.986;7.938;2023-02-15T00:31:42;41.40;;;18.60;;
8490;SDS011;4282;49.986;7.938;2023-02-15T00:34:11;38.03;;;18.00;;
8490;SDS011;4282;49.986;7.938;2023-02-15T00:36:40;35.50;;;18.30;;
8490;SDS011;4282;49.986;7.938;2023-02-15T00:39:08;39.63;;;18.57;;
8490;SDS011;4282;49.986;7.938;2023-02-15T00:41:37;34.47;;;17.30;;
8490;SDS011;4282;49.986;7.938;2023-02-15T00:44:05;38.33;;;19.53;;
8490;SDS011;4282;49.986;7.938;2023-02-15T00:46:37;40.80;;;18.40;;
8490;SDS011;4282;49.986;7.938;2023-02-15T00:49:05;41.00;;;19.30;;
8490;SDS011;4282;49.986;7.938;2023-02-15T00:51:33;42.00;;;19.03;;
8490;SDS011;4282;49.986;7.938;2023-02-15T00:54:01;37.60;;;17.43;;
8490;SDS011;4282;49.986;7.938;2023-02-15T00:56:30;35.77;;;17.90;;
8490;SDS011;4282;49.986;7.938;2023-02-15T00:58:58;43.80;;;18.73;;
8490;SDS011;4282;49.986;7.938;2023-02-15T01:01:26;42.07;;;17.70;;
8490;SDS011;4282;49.986;7.938;2023-02-15T01:03:57;46.90;;;19.83;;
8490;SDS011;4282;49.986;7.938;2023-02-15T01:06:25;42.30;;;19.63;;
8490;SDS011;4282;49.986;7.938;2023-02-15T01:08:53;46.57;;;20.97;;
8490;SDS011;4282;49.986;7.938;2023-02-15T01:11:22;38.93;;;17.50;;
8490;SDS011;4282;49.986;7.938;2023-02-15T01:13:51;42.90;;;18.87;;
8490;SDS011;4282;49.986;7.938;2023-02-15T01:16:20;48.40;;;19.87;;
8490;SDS011;4282;49.986;7.938;2023-02-15T01:18:49;44.50;;;18.53;;
8490;SDS011;4282;49.986;7.938;2023-02-15T01:21:23;45.27;;;18.70;;
8490;SDS011;4282;49.986;7.938;2023-02-15T01:23:52;43.47;;;17.00;;
8490;SDS011;4282;49.986;7.938;2023-02-15T01:26:20;46.37;;;19.80;;
8490;SDS011;4282;49.986;7.938;2023-02-15T01:28:49;38.13;;;17.77;;
8490;SDS011;4282;49.986;7.938;2023-02-15T01:31:17;40.90;;;17.20;;
8490;SDS011;4282;49.986;7.938;2023-02-15T01:33:47;41.07;;;19.13;;
8490;SDS011;4282;49.986;7.938;2023-02-15T01:36:16;40.07;;;17.47;;
8490;SDS011;4282;49.986;7.938;2023-02-15T01:38:47;46.00;;;19.73;;
8490;SDS011;4282;49.986;7.938;2023-02-15T01:41:15;40.63;;;20.17;;
8490;SDS011;4282;49.986;7.938;2023-02-15T01:43:53;44.83;;;19.97;;
8490;SDS011;4282;49.986;7.938;2023-02-15T01:46:24;40.33;;;19.20;;
8490;SDS011;4282;49.986;7.938;2023-02-15T01:48:56;42.53;;;18.37;;
8490;SDS011;4282;49.986;7.938;2023-02-15T01:51:29;42.37;;;18.77;;
8490;SDS011;4282;49.986;7.938;2023-02-15T01:54:02;43.37;;;18.37;;
8490;SDS011;4282;49.986;7.938;2023-02-15T01:56:35;40.00;;;15.60;;
8490;SDS011;4282;49.986;7.938;2023-02-15T01:59:06;46.00;;;19.43;;
8490;SDS011;4282;49.986;7.938;2023-02-15T02:01:36;41.83;;;17.53;;
8490;SDS011;4282;49.986;7.938;2023-02-15T02:04:07;43.53;;;19.23;;
8490;SDS011;4282;49.986;7.938;2023-02-15T02:06:37;50.10;;;19.50;;
8490;SDS011;4282;49.986;7.938;2023-02-15T02:09:09;44.17;;;19.37;;
8490;SDS011;4282;49.986;7.938;2023-02-15T02:11:38;48.40;;;18.80;;
8490;SDS011;4282;49.986;7.938;2023-02-15T02:14:07;51.77;;;20.33;;
8490;SDS011;4282;49.986;7.938;2023-02-15T02:16:38;44.47;;;20.00;;
8490;SDS011;4282;49.986;7.938;2023-02-15T02:19:25;35.77;;;18.80;;
8490;SDS011;4282;49.986;7.938;2023-02-15T02:25:28;37.60;;;16.83;;
8490;SDS011;4282;49.986;7.938;2023-02-15T02:28:10;41.07;;;18.60;;
8490;SDS011;4282;49.986;7.938;2023-02-15T02:31:00;43.23;;;19.10;;
8490;SDS011;4282;49.986;7.938;2023-02-15T02:33:45;40.00;;;18.80;;
8490;SDS011;4282;49.986;7.938;2023-02-15T02:36:22;36.87;;;17.77;;
8490;SDS011;4282;49.986;7.938;2023-02-15T02:39:03;32.57;;;17.00;;
8490;SDS011;4282;49.986;7.938;2023-02-15T02:41:37;35.60;;;17.73;;
8490;SDS011;4282;49.986;7.938;2023-02-15T02:44:10;40.03;;;18.83;;
8490;SDS011;4282;49.986;7.938;2023-02-15T02:46:44;39.83;;;19.23;;
8490;SDS011;4282;49.986;7.938;2023-02-15T02:49:20;39.57;;;18.43;;
8490;SDS011;4282;49.986;7.938;2023-02-15T02:52:00;40.60;;;17.47;;
8490;SDS011;4282;49.986;7.938;2023-02-15T02:54:29;38.37;;;18.07;;
8490;SDS011;4282;49.986;7.938;2023-02-15T02:56:59;36.60;;;17.90;;
8490;SDS011;4282;49.986;7.938;2023-02-15T02:59:30;40.17;;;18.30;;
8490;SDS011;4282;49.986;7.938;2023-02-15T03:02:00;40.47;;;16.37;;
8490;SDS011;4282;49.986;7.938;2023-02-15T03:04:35;35.43;;;16.67;;
8490;SDS011;4282;49.986;7.938;2023-02-15T03:07:07;35.37;;;16.87;;
8490;SDS011;4282;49.986;7.938;2023-02-15T03:09:39;35.17;;;15.83;;
8490;SDS011;4282;49.986;7.938;2023-02-15T03:12:09;33.57;;;15.83;;
8490;SDS011;4282;49.986;7.938;2023-02-15T03:14:39;34.63;;;16.47;;
8490;SDS011;4282;49.986;7.938;2023-02-15T03:17:08;41.27;;;17.63;;
8490;SDS011;4282;49.986;7.938;2023-02-15T03:19:37;37.90;;;17.53;;
8490;SDS011;4282;49.986;7.938;2023-02-15T03:22:07;37.07;;;17.10;;
8490;SDS011;4282;49.986;7.938;2023-02-15T03:24:40;35.43;;;15.87;;
8490;SDS011;4282;49.986;7.938;2023-02-15T03:27:13;36.33;;;16.87;;
8490;SDS011;4282;49.986;7.938;2023-02-15T03:29:45;37.77;;;17.67;;
8490;SDS011;4282;49.986;7.938;2023-02-15T03:32:14;40.17;;;17.10;;
8490;SDS011;4282;49.986;7.938;2023-02-15T03:34:46;36.50;;;17.13;;
8490;SDS011;4282;49.986;7.938;2023-02-15T03:37:18;35.80;;;17.00;;
8490;SDS011;4282;49.986;7.938;2023-02-15T03:39:51;36.93;;;16.63;;
8490;SDS011;4282;49.986;7.938;2023-02-15T03:42:22;34.77;;;16.70;;
8490;SDS011;4282;49.986;7.938;2023-02-15T03:44:54;45.37;;;16.70;;
8490;SDS011;4282;49.986;7.938;2023-02-15T03:47:26;32.13;;;13.87;;
8490;SDS011;4282;49.986;7.938;2023-02-15T03:50:00;34.30;;;15.80;;
8490;SDS011;4282;49.986;7.938;2023-02-15T03:52:50;27.03;;;12.10;;
8490;SDS011;4282;49.986;7.938;2023-02-15T03:55:16;35.23;;;14.30;;
8490;SDS011;4282;49.986;7.938;2023-02-15T03:57:44;33.87;;;13.53;;
8490;SDS011;4282;49.986;7.938;2023-02-15T04:00:25;28.20;;;14.07;;
8490;SDS011;4282;49.986;7.938;2023-02-15T04:03:12;25.30;;;12.70;;
8490;SDS011;4282;49.986;7.938;2023-02-15T04:05:50;36.17;;;13.93;;
8490;SDS011;4282;49.986;7.938;2023-02-15T04:08:18;31.47;;;12.33;;
8490;SDS011;4282;49.986;7.938;2023-02-15T04:11:06;31.83;;;12.63;;
8490;SDS011;4282;49.986;7.938;2023-02-15T04:13:32;37.47;;;15.67;;
8490;SDS011;4282;49.986;7.938;2023-02-15T04:16:00;17.27;;;7.17;;
8490;SDS011;4282;49.986;7.938;2023-02-15T04:18:29;28.43;;;12.77;;
8490;SDS011;4282;49.986;7.938;2023-02-15T04:21:13;29.63;;;14.43;;
8490;SDS011;4282;49.986;7.938;2023-02-15T04:23:54;29.90;;;15.33;;
8490;SDS011;4282;49.986;7.938;2023-02-15T04:26:34;31.57;;;12.43;;
8490;SDS011;4282;49.986;7.938;2023-02-15T04:29:03;32.73;;;15.73;;
8490;SDS011;4282;49.986;7.938;2023-02-15T04:31:31;27.23;;;13.30;;
8490;SDS011;4282;49.986;7.938;2023-02-15T04:33:59;25.37;;;12.83;;
8490;SDS011;4282;49.986;7.938;2023-02-15T04:36:30;16.23;;;7.97;;
8490;SDS011;4282;49.986;7.938;2023-02-15T04:38:58;26.50;;;12.97;;
8490;SDS011;4282;49.986;7.938;2023-02-15T04:41:26;28.00;;;13.23;;
8490;SDS011;4282;49.986;7.938;2023-02-15T04:43:55;20.77;;;10.70;;
8490;SDS011;4282;49.986;7.938;2023-02-15T04:46:24;28.17;;;13.80;;
8490;SDS011;4282;49.986;7.938;2023-02-15T04:48:52;25.90;;;14.80;;
8490;SDS011;4282;49.986;7.938;2023-02-15T04:51:21;25.47;;;13.80;;
8490;SDS011;4282;49.986;7.938;2023-02-15T04:53:51;26.53;;;11.87;;
8490;SDS011;4282;49.986;7.938;2023-02-15T04:56:21;30.53;;;14.43;;
8490;SDS011;4282;49.986;7.938;2023-02-15T04:58:49;27.33;;;12.77;;
8490;SDS011;4282;49.986;7.938;2023-02-15T05:01:18;22.03;;;10.53;;
8490;SDS011;4282;49.986;7.938;2023-02-15T05:03:46;24.07;;;12.30;;
8490;SDS011;4282;49.986;7.938;2023-02-15T05:06:15;22.83;;;11.03;;
8490;SDS011;4282;49.986;7.938;2023-02-15T05:08:43;27.47;;;12.53;;
8490;SDS011;4282;49.986;7.938;2023-02-15T05:11:14;29.03;;;13.90;;
8490;SDS011;4282;49.986;7.938;2023-02-15T05:13:42;18.60;;;9.70;;
8490;SDS011;4282;49.986;7.938;2023-02-15T05:16:10;19.13;;;9.63;;
8490;SDS011;4282;49.986;7.938;2023-02-15T05:18:39;22.33;;;11.93;;
8490;SDS011;4282;49.986;7.938;2023-02-15T05:21:07;24.47;;;12.07;;
8490;SDS011;4282;49.986;7.938;2023-02-15T05:23:35;27.60;;;12.30;;
8490;SDS011;4282;49.986;7.938;2023-02-15T05:26:03;22.80;;;11.60;;
8490;SDS011;4282;49.986;7.938;2023-02-15T05:28:47;24.60;;;11.77;;
8490;SDS011;4282;49.986;7.938;2023-02-15T05:31:16;20.77;;;10.20;;
8490;SDS011;4282;49.986;7.938;2023-02-15T05:33:45;25.07;;;11.07;;
8490;SDS011;4282;49.986;7.938;2023-02-15T05:36:14;21.47;;;9.60;;
8490;SDS011;4282;49.986;7.938;2023-02-15T05:38:42;17.07;;;9.60;;
8490;SDS011;4282;49.986;7.938;2023-02-15T05:41:10;25.83;;;12.37;;
8490;SDS011;4282;49.986;7.938;2023-02-15T05:43:39;22.77;;;11.33;;
8490;SDS011;4282;49.986;7.938;2023-02-15T05:46:10;13.17;;;6.93;;
8490;SDS011;4282;49.986;7.938;2023-02-15T05:48:38;22.20;;;10.87;;
8490;SDS011;4282;49.986;7.938;2023-02-15T05:51:07;13.30;;;8.33;;
8490;SDS011;4282;49.986;7.938;2023-02-15T05:53:38;22.13;;;12.20;;
8490;SDS011;4282;49.986;7.938;2023-02-15T05:56:07;21.13;;;10.07;;
8490;SDS011;4282;49.986;7.938;2023-02-15T05:58:37;19.30;;;9.63;;
8490;SDS011;4282;49.986;7.938;2023-02-15T06:01:12;23.33;;;11.97;;
8490;SDS011;4282;49.986;7.938;2023-02-15T06:03:42;25.07;;;12.50;;
8490;SDS011;4282;49.986;7.938;2023-02-15T06:06:11;27.07;;;12.77;;
8490;SDS011;4282;49.986;7.938;2023-02-15T06:08:39;20.43;;;11.73;;
8490;SDS011;4282;49.986;7.938;2023-02-15T06:11:07;26.17;;;12.93;;
8490;SDS011;4282;49.986;7.938;2023-02-15T06:13:36;24.03;;;12.03;;
8490;SDS011;4282;49.986;7.938;2023-02-15T06:16:04;20.23;;;10.80;;
8490;SDS011;4282;49.986;7.938;2023-02-15T06:18:35;23.10;;;10.47;;
8490;SDS011;4282;49.986;7.938;2023-02-15T06:21:03;23.37;;;12.53;;
8490;SDS011;4282;49.986;7.938;2023-02-15T06:23:32;26.17;;;11.83;;
8490;SDS011;4282;49.986;7.938;2023-02-15T06:26:00;21.13;;;11.63;;
8490;SDS011;4282;49.986;7.938;2023-02-15T06:28:28;26.10;;;12.23;;
8490;SDS011;4282;49.986;7.938;2023-02-15T06:30:56;20.60;;;11.17;;
8490;SDS011;4282;49.986;7.938;2023-02-15T06:33:25;23.60;;;11.10;;
8490;SDS011;4282;49.986;7.938;2023-02-15T06:35:57;18.57;;;10.27;;
8490;SDS011;4282;49.986;7.938;2023-02-15T06:38:26;20.50;;;11.10;;
8490;SDS011;4282;49.986;7.938;2023-02-15T06:40:55;21.30;;;10.60;;
8490;SDS011;4282;49.986;7.938;2023-02-15T06:43:23;23.50;;;11.57;;
8490;SDS011;4282;49.986;7.938;2023-02-15T06:45:51;22.50;;;12.10;;
8490;SDS011;4282;49.986;7.938;2023-02-15T06:48:19;21.70;;;10.50;;
8490;SDS011;4282;49.986;7.938;2023-02-15T06:50:47;15.93;;;7.63;;
8490;SDS011;4282;49.986;7.938;2023-02-15T06:53:18;19.90;;;10.50;;
8490;SDS011;4282;49.986;7.938;2023-02-15T06:55:47;21.60;;;9.53;;
8490;SDS011;4282;49.986;7.938;2023-02-15T06:58:15;16.63;;;8.63;;
8490;SDS011;4282;49.986;7.938;2023-02-15T07:00:43;22.57;;;11.17;;
8490;SDS011;4282;49.986;7.938;2023-02-15T07:03:13;19.97;;;8.63;;
8490;SDS011;4282;49.986;7.938;2023-02-15T07:05:42;21.40;;;9.07;;
8490;SDS011;4282;49.986;7.938;2023-02-15T07:08:12;21.27;;;9.63;;
8490;SDS011;4282;49.986;7.938;2023-02-15T07:10:46;20.97;;;10.47;;
8490;SDS011;4282;49.986;7.938;2023-02-15T07:13:14;19.93;;;11.17;;
8490;SDS011;4282;49.986;7.938;2023-02-15T07:15:40;21.20;;;10.77;;
8490;SDS011;4282;49.986;7.938;2023-02-15T07:18:08;19.47;;;10.20;;
8490;SDS011;4282;49.986;7.938;2023-02-15T07:20:36;23.50;;;10.37;;
8490;SDS011;4282;49.986;7.938;2023-02-15T07:23:06;21.50;;;9.57;;
8490;SDS011;4282;49.986;7.938;2023-02-15T07:25:35;13.47;;;6.83;;
8490;SDS011;4282;49.986;7.938;2023-02-15T07:28:06;21.33;;;10.33;;
8490;SDS011;4282;49.986;7.938;2023-02-15T07:30:34;13.13;;;6.80;;
8490;SDS011;4282;49.986;7.938;2023-02-15T07:33:03;11.47;;;6.23;;
8490;SDS011;4282;49.986;7.938;2023-02-15T07:35:47;23.03;;;11.60;;
8490;SDS011;4282;49.986;7.938;2023-02-15T07:38:15;15.67;;;8.03;;
8490;SDS011;4282;49.986;7.938;2023-02-15T07:40:44;13.00;;;6.90;;
8490;SDS011;4282;49.986;7.938;2023-02-15T07:43:15;16.50;;;7.93;;
8490;SDS011;4282;49.986;7.938;2023-02-15T07:45:43;19.80;;;11.40;;
8490;SDS011;4282;49.986;7.938;2023-02-15T07:48:12;8.13;;;5.10;;
8490;SDS011;4282;49.986;7.938;2023-02-15T07:50:40;22.33;;;11.10;;
8490;SDS011;4282;49.986;7.938;2023-02-15T07:53:08;20.73;;;10.23;;
8490;SDS011;4282;49.986;7.938;2023-02-15T07:55:36;21.93;;;10.13;;
8490;SDS011;4282;49.986;7.938;2023-02-15T07:58:04;26.43;;;10.83;;
8490;SDS011;4282;49.986;7.938;2023-02-15T08:00:35;3.77;;;2.63;;
8490;SDS011;4282;49.986;7.938;2023-02-15T08:03:22;24.47;;;9.67;;
8490;SDS011;4282;49.986;7.938;2023-02-15T08:05:54;26.00;;;11.23;;
8490;SDS011;4282;49.986;7.938;2023-02-15T08:08:25;21.53;;;9.67;;
8490;SDS011;4282;49.986;7.938;2023-02-15T08:11:01;23.87;;;12.20;;
8490;SDS011;4282;49.986;7.938;2023-02-15T08:13:43;24.10;;;12.27;;
8490;SDS011;4282;49.986;7.938;2023-02-15T08:16:21;28.87;;;14.00;;
8490;SDS011;4282;49.986;7.938;2023-02-15T08:18:51;25.87;;;11.53;;
8490;SDS011;4282;49.986;7.938;2023-02-15T08:21:19;24.77;;;11.13;;
8490;SDS011;4282;49.986;7.938;2023-02-15T08:23:48;19.27;;;9.97;;
8490;SDS011;4282;49.986;7.938;2023-02-15T08:26:16;26.03;;;11.67;;
8490;SDS011;4282;49.986;7.938;2023-02-15T08:28:44;22.27;;;11.17;;
8490;SDS011;4282;49.986;7.938;2023-02-15T08:31:14;18.93;;;10.33;;
8490;SDS011;4282;49.986;7.938;2023-02-15T08:33:45;19.83;;;9.87;;
8490;SDS011;4282;49.986;7.938;2023-02-15T08:36:15;19.93;;;9.20;;
8490;SDS011;4282;49.986;7.938;2023-02-15T08:38:45;16.90;;;7.37;;
8490;SDS011;4282;49.986;7.938;2023-02-15T08:41:14;8.27;;;5.57;;
8490;SDS011;4282;49.986;7.938;2023-02-15T08:43:44;18.33;;;9.40;;
8490;SDS011;4282;49.986;7.938;2023-02-15T08:46:13;17.67;;;8.53;;
8490;SDS011;4282;49.986;7.938;2023-02-15T08:48:45;6.93;;;3.80;;
8490;SDS011;4282;49.986;7.938;2023-02-15T08:51:14;13.90;;;6.93;;
8490;SDS011;4282;49.986;7.938;2023-02-15T08:53:45;18.07;;;8.90;;
8490;SDS011;4282;49.986;7.938;2023-02-15T08:56:17;18.97;;;9.90;;
8490;SDS011;4282;49.986;7.938;2023-02-15T08:58:46;17.33;;;9.13;;
8490;SDS011;4282;49.986;7.938;2023-02-15T09:01:14;14.47;;;8.10;;
8490;SDS011;4282;49.986;7.938;2023-02-15T09:03:49;17.33;;;8.97;;
8490;SDS011;4282;49.986;7.938;2023-02-15T09:06:19;17.77;;;7.93;;
8490;SDS011;4282;49.986;7.938;2023-02-15T09:08:47;20.00;;;10.20;;
8490;SDS011;4282;49.986;7.938;2023-02-15T09:11:16;17.33;;;9.50;;
8490;SDS011;4282;49.986;7.938;2023-02-15T09:13:48;19.47;;;9.13;;
8490;SDS011;4282;49.986;7.938;2023-02-15T09:16:17;18.87;;;9.20;;
8490;SDS011;4282;49.986;7.938;2023-02-15T09:18:48;18.73;;;9.57;;
8490;SDS011;4282;49.986;7.938;2023-02-15T09:21:17;15.23;;;8.37;;
8490;SDS011;4282;49.986;7.938;2023-02-15T09:23:47;15.53;;;7.47;;
8490;SDS011;4282;49.986;7.938;2023-02-15T09:26:17;20.43;;;10.53;;
8490;SDS011;4282;49.986;7.938;2023-02-15T09:28:47;19.10;;;9.57;;
8490;SDS011;4282;49.986;7.938;2023-02-15T09:31:21;18.30;;;10.20;;
8490;SDS011;4282;49.986;7.938;2023-02-15T09:33:54;20.47;;;10.37;;
8490;SDS011;4282;49.986;7.938;2023-02-15T09:36:23;21.00;;;10.37;;
8490;SDS011;4282;49.986;7.938;2023-02-15T09:38:54;21.77;;;10.23;;
8490;SDS011;4282;49.986;7.938;2023-02-15T09:41:34;20.43;;;10.40;;
8490;SDS011;4282;49.986;7.938;2023-02-15T09:44:11;20.73;;;11.00;;
8490;SDS011;4282;49.986;7.938;2023-02-15T09:46:50;20.67;;;10.00;;
8490;SDS011;4282;49.986;7.938;2023-02-15T09:49:31;21.63;;;10.50;;
8490;SDS011;4282;49.986;7.938;2023-02-15T09:52:08;18.57;;;9.70;;
8490;SDS011;4282;49.986;7.938;2023-02-15T09:55:02;18.50;;;10.57;;
8490;SDS011;4282;49.986;7.938;2023-02-15T09:57:37;20.50;;;11.20;;
8490;SDS011;4282;49.986;7.938;2023-02-15T10:00:13;19.43;;;9.67;;
8490;SDS011;4282;49.986;7.938;2023-02-15T10:02:54;17.37;;;9.27;;
8490;SDS011;4282;49.986;7.938;2023-02-15T10:05:37;16.47;;;9.43;;
8490;SDS011;4282;49.986;7.938;2023-02-15T10:08:14;17.10;;;9.70;;
8490;SDS011;4282;49.986;7.938;2023-02-15T10:10:53;19.73;;;9.43;;
8490;SDS011;4282;49.986;7.938;2023-02-15T10:13:45;20.53;;;10.37;;
8490;SDS011;4282;49.986;7.938;2023-02-15T10:16:19;18.77;;;8.87;;
8490;SDS011;4282;49.986;7.938;2023-02-15T10:18:53;17.33;;;9.57;;
8490;SDS011;4282;49.986;7.938;2023-02-15T10:21:30;18.47;;;10.50;;
8490;SDS011;4282;49.986;7.938;2023-02-15T10:26:55;16.40;;;8.10;;
8490;SDS011;4282;49.986;7.938;2023-02-15T10:29:27;16.50;;;9.60;;
8490;SDS011;4282;49.986;7.938;2023-02-15T10:32:01;16.37;;;9.73;;
8490;SDS011;4282;49.986;7.938;2023-02-15T10:34:35;12.97;;;7.63;;
8490;SDS011;4282;49.986;7.938;2023-02-15T10:37:16;17.73;;;9.60;;
8490;SDS011;4282;49.986;7.938;2023-02-15T10:39:53;17.90;;;9.67;;
8490;SDS011;4282;49.986;7.938;2023-02-15T10:42:28;16.40;;;10.37;;
8490;SDS011;4282;49.986;7.938;2023-02-15T10:45:04;15.93;;;9.20;;
8490;SDS011;4282;49.986;7.938;2023-02-15T10:47:41;5.33;;;3.03;;
8490;SDS011;4282;49.986;7.938;2023-02-15T10:50:24;10.23;;;6.00;;
8490;SDS011;4282;49.986;7.938;2023-02-15T10:53:04;13.03;;;7.87;;
8490;SDS011;4282;49.986;7.938;2023-02-15T10:55:42;10.80;;;7.57;;
8490;SDS011;4282;49.986;7.938;2023-02-15T10:58:17;18.20;;;11.00;;
8490;SDS011;4282;49.986;7.938;2023-02-15T11:00:53;15.63;;;7.37;;
8490;SDS011;4282;49.986;7.938;2023-02-15T11:03:32;14.60;;;8.63;;
8490;SDS011;4282;49.986;7.938;2023-02-15T11:06:09;13.87;;;9.30;;
8490;SDS011;4282;49.986;7.938;2023-02-15T11:08:42;15.77;;;9.70;;
8490;SDS011;4282;49.986;7.938;2023-02-15T11:11:14;16.13;;;9.90;;
8490;SDS011;4282;49.986;7.938;2023-02-15T11:13:48;18.63;;;10.27;;
8490;SDS011;4282;49.986;7.938;2023-02-15T11:16:20;16.83;;;10.13;;
8490;SDS011;4282;49.986;7.938;2023-02-15T11:18:50;15.47;;;9.60;;
8490;SDS011;4282;49.986;7.938;2023-02-15T11:21:22;17.73;;;10.97;;
8490;SDS011;4282;49.986;7.938;2023-02-15T11:23:54;15.20;;;9.93;;
8490;SDS011;4282;49.986;7.938;2023-02-15T11:26:25;10.97;;;6.03;;
8490;SDS011;4282;49.986;7.938;2023-02-15T11:28:57;13.67;;;8.27;;
8490;SDS011;4282;49.986;7.938;2023-02-15T11:31:29;15.13;;;8.77;;
8490;SDS011;4282;49.986;7.938;2023-02-15T11:34:04;11.87;;;6.50;;
8490;SDS011;4282;49.986;7.938;2023-02-15T11:36:38;15.80;;;8.60;;
8490;SDS011;4282;49.986;7.938;2023-02-15T11:39:11;16.70;;;10.03;;
8490;SDS011;4282;49.986;7.938;2023-02-15T11:41:43;15.00;;;9.27;;
8490;SDS011;4282;49.986;7.938;2023-02-15T11:44:16;18.30;;;10.63;;
8490;SDS011;4282;49.986;7.938;2023-02-15T11:46:47;11.33;;;6.53;;
8490;SDS011;4282;49.986;7.938;2023-02-15T11:49:20;14.60;;;9.63;;
8490;SDS011;4282;49.986;7.938;2023-02-15T11:51:51;17.23;;;10.23;;
8490;SDS011;4282;49.986;7.938;2023-02-15T11:54:23;17.87;;;10.77;;
8490;SDS011;4282;49.986;7.938;2023-02-15T11:56:55;16.73;;;9.60;;
8490;SDS011;4282;49.986;7.938;2023-02-15T11:59:26;18.80;;;11.30;;
8490;SDS011;4282;49.986;7.938;2023-02-15T12:01:57;18.00;;;10.40;;
8490;SDS011;4282;49.986;7.938;2023-02-15T12:04:26;19.40;;;11.77;;
8490;SDS011;4282;49.986;7.938;2023-02-15T12:06:59;19.00;;;11.40;;
8490;SDS011;4282;49.986;7.938;2023-02-15T12:09:34;19.27;;;10.83;;
8490;SDS011;4282;49.986;7.938;2023-02-15T12:14:50;18.33;;;10.63;;
8490;SDS011;4282;49.986;7.938;2023-02-15T12:17:20;19.60;;;10.43;;
8490;SDS011;4282;49.986;7.938;2023-02-15T12:19:49;18.27;;;10.60;;
8490;SDS011;4282;49.986;7.938;2023-02-15T12:22:20;18.07;;;11.30;;
8490;SDS011;4282;49.986;7.938;2023-02-15T12:24:54;19.63;;;10.17;;
8490;SDS011;4282;49.986;7.938;2023-02-15T12:27:23;14.40;;;7.83;;
8490;SDS011;4282;49.986;7.938;2023-02-15T12:29:53;20.17;;;11.83;;
8490;SDS011;4282;49.986;7.938;2023-02-15T12:32:25;18.77;;;11.37;;
8490;SDS011;4282;49.986;7.938;2023-02-15T12:34:55;18.73;;;11.47;;
8490;SDS011;4282;49.986;7.938;2023-02-15T12:37:27;17.33;;;11.03;;
8490;SDS011;4282;49.986;7.938;2023-02-15T12:40:10;17.97;;;10.37;;
8490;SDS011;4282;49.986;7.938;2023-02-15T12:42:47;21.30;;;10.63;;
8490;SDS011;4282;49.986;7.938;2023-02-15T12:45:25;17.87;;;11.67;;
8490;SDS011;4282;49.986;7.938;2023-02-15T12:48:08;17.80;;;11.67;;
8490;SDS011;4282;49.986;7.938;2023-02-15T12:50:41;16.90;;;9.20;;
8490;SDS011;4282;49.986;7.938;2023-02-15T12:53:13;19.00;;;11.67;;
8490;SDS011;4282;49.986;7.938;2023-02-15T12:55:53;17.97;;;11.50;;
8490;SDS011;4282;49.986;7.938;2023-02-15T12:58:23;18.97;;;11.37;;
8490;SDS011;4282;49.986;7.938;2023-02-15T13:03:49;18.33;;;11.23;;
8490;SDS011;4282;49.986;7.938;2023-02-15T13:06:23;18.80;;;11.53;;
8490;SDS011;4282;49.986;7.938;2023-02-15T13:08:51;21.30;;;13.33;;
8490;SDS011;4282;49.986;7.938;2023-02-15T13:11:24;19.50;;;12.30;;
8490;SDS011;4282;49.986;7.938;2023-02-15T13:13:55;19.00;;;12.17;;
8490;SDS011;4282;49.986;7.938;2023-02-15T13:16:25;21.70;;;11.73;;
8490;SDS011;4282;49.986;7.938;2023-02-15T13:18:57;18.43;;;10.10;;
8490;SDS011;4282;49.986;7.938;2023-02-15T13:21:26;17.63;;;11.00;;
8490;SDS011;4282;49.986;7.938;2023-02-15T13:23:59;18.47;;;11.57;;
8490;SDS011;4282;49.986;7.938;2023-02-15T13:26:32;19.57;;;11.83;;
8490;SDS011;4282;49.986;7.938;2023-02-15T13:29:01;21.13;;;12.13;;
8490;SDS011;4282;49.986;7.938;2023-02-15T13:31:34;18.10;;;12.40;;
8490;SDS011;4282;49.986;7.938;2023-02-15T13:34:05;20.67;;;12.40;;
8490;SDS011;4282;49.986;7.938;2023-02-15T13:36:39;18.53;;;11.93;;
8490;SDS011;4282;49.986;7.938;2023-02-15T13:39:17;17.07;;;11.47;;
8490;SDS011;4282;49.986;7.938;2023-02-15T13:41:55;18.33;;;11.73;;
8490;SDS011;4282;49.986;7.938;2023-02-15T13:44:32;18.70;;;10.37;;
8490;SDS011;4282;49.986;7.938;2023-02-15T13:47:13;16.83;;;10.20;;
8490;SDS011;4282;49.986;7.938;2023-02-15T13:49:48;21.20;;;12.23;;
8490;SDS011;4282;49.986;7.938;2023-02-15T13:52:21;20.77;;;13.03;;
8490;SDS011;4282;49.986;7.938;2023-02-15T13:58:08;18.00;;;11.53;;
8490;SDS011;4282;49.986;7.938;2023-02-15T14:00:47;19.87;;;12.17;;
8490;SDS011;4282;49.986;7.938;2023-02-15T14:03:26;22.13;;;13.50;;
8490;SDS011;4282;49.986;7.938;2023-02-15T14:06:22;21.40;;;12.33;;
8490;SDS011;4282;49.986;7.938;2023-02-15T14:09:07;27.27;;;13.63;;
8490;SDS011;4282;49.986;7.938;2023-02-15T14:11:43;22.33;;;12.83;;
8490;SDS011;4282;49.986;7.938;2023-02-15T14:14:34;18.93;;;11.70;;
8490;SDS011;4282;49.986;7.938;2023-02-15T14:17:10;23.10;;;13.60;;
8490;SDS011;4282;49.986;7.938;2023-02-15T14:19:43;22.07;;;12.90;;
8490;SDS011;4282;49.986;7.938;2023-02-15T14:22:17;19.10;;;12.30;;
8490;SDS011;4282;49.986;7.938;2023-02-15T14:24:52;24.67;;;13.60;;
8490;SDS011;4282;49.986;7.938;2023-02-15T14:27:31;20.20;;;13.37;;
8490;SDS011;4282;49.986;7.938;2023-02-15T14:30:13;20.53;;;13.80;;
8490;SDS011;4282;49.986;7.938;2023-02-15T14:32:45;22.90;;;13.90;;
8490;SDS011;4282;49.986;7.938;2023-02-15T14:35:15;19.73;;;11.07;;
8490;SDS011;4282;49.986;7.938;2023-02-15T14:37:46;22.37;;;13.43;;
8490;SDS011;4282;49.986;7.938;2023-02-15T14:40:19;20.13;;;13.23;;
8490;SDS011;4282;49.986;7.938;2023-02-15T14:43:11;17.10;;;10.53;;
8490;SDS011;4282;49.986;7.938;2023-02-15T14:45:48;22.33;;;13.27;;
8490;SDS011;4282;49.986;7.938;2023-02-15T14:48:19;25.53;;;12.57;;
8490;SDS011;4282;49.986;7.938;2023-02-15T14:50:48;21.30;;;11.33;;
8490;SDS011;4282;49.986;7.938;2023-02-15T14:53:22;23.87;;;14.13;;
8490;SDS011;4282;49.986;7.938;2023-02-15T14:56:18;19.40;;;11.03;;
8490;SDS011;4282;49.986;7.938;2023-02-15T14:58:54;21.37;;;14.00;;
8490;SDS011;4282;49.986;7.938;2023-02-15T15:01:27;21.67;;;13.50;;
8490;SDS011;4282;49.986;7.938;2023-02-15T15:03:58;21.10;;;13.10;;
8490;SDS011;4282;49.986;7.938;2023-02-15T15:06:29;28.30;;;16.95;;
8490;SDS011;4282;49.986;7.938;2023-02-15T15:08:59;25.23;;;14.87;;
8490;SDS011;4282;49.986;7.938;2023-02-15T15:11:39;24.60;;;14.17;;
8490;SDS011;4282;49.986;7.938;2023-02-15T15:14:09;22.73;;;13.27;;
8490;SDS011;4282;49.986;7.938;2023-02-15T15:16:52;22.97;;;14.23;;
8490;SDS011;4282;49.986;7.938;2023-02-15T15:22:32;26.60;;;14.33;;
8490;SDS011;4282;49.986;7.938;2023-02-15T15:25:02;23.00;;;13.70;;
8490;SDS011;4282;49.986;7.938;2023-02-15T15:27:42;21.33;;;14.83;;
8490;SDS011;4282;49.986;7.938;2023-02-15T15:36:34;26.47;;;13.80;;
8490;SDS011;4282;49.986;7.938;2023-02-15T15:39:32;27.00;;;15.17;;
8490;SDS011;4282;49.986;7.938;2023-02-15T15:42:13;21.27;;;13.10;;
8490;SDS011;4282;49.986;7.938;2023-02-15T15:44:54;24.57;;;14.27;;
8490;SDS011;4282;49.986;7.938;2023-02-15T15:47:48;23.53;;;14.53;;